createdAt,value
2023-01-12T00:01:48.139Z,9.38
2023-01-12T00:04:19.736Z,8.55
2023-01-12T00:10:12.166Z,8.48
2023-01-12T00:13:07.234Z,8.80
2023-01-12T00:15:59.290Z,10.50
2023-01-12T00:18:30.180Z,9.77
2023-01-12T00:21:01.187Z,10.23
2023-01-12T00:23:33.656Z,10.23
2023-01-12T00:26:37.580Z,11.35
2023-01-12T00:29:17.937Z,8.48
2023-01-12T00:31:49.374Z,9.60
2023-01-12T00:34:41.179Z,8.75
2023-01-12T00:37:12.448Z,9.25
2023-01-12T00:39:56.650Z,9.32
2023-01-12T00:42:50.806Z,8.68
2023-01-12T00:45:28.175Z,10.38
2023-01-12T00:48:19.100Z,9.27
2023-01-12T00:51:24.256Z,9.48
2023-01-12T00:53:57.340Z,8.82
2023-01-12T00:56:47.991Z,9.88
2023-01-12T00:59:19.037Z,9.07
2023-01-12T01:01:50.363Z,9.07
2023-01-12T01:04:21.617Z,8.38
2023-01-12T01:06:52.606Z,8.20
2023-01-12T01:09:23.794Z,10.15
2023-01-12T01:11:58.101Z,7.93
2023-01-12T01:14:29.360Z,8.13
2023-01-12T01:17:00.229Z,8.23
2023-01-12T01:19:31.336Z,9.15
2023-01-12T01:22:03.211Z,8.32
2023-01-12T01:24:34.639Z,10.10
2023-01-12T01:27:05.582Z,9.20
2023-01-12T01:29:36.286Z,8.80
2023-01-12T01:32:07.997Z,7.50
2023-01-12T01:35:01.911Z,9.00
2023-01-12T01:37:37.007Z,9.43
2023-01-12T01:40:08.451Z,8.32
2023-01-12T01:42:59.193Z,10.32
2023-01-12T01:45:30.457Z,8.45
2023-01-12T01:48:03.947Z,9.68
2023-01-12T01:50:40.079Z,8.05
2023-01-12T01:53:16.048Z,8.48
2023-01-12T01:56:00.683Z,8.25
2023-01-12T01:58:59.138Z,8.95
2023-01-12T02:01:50.870Z,7.90
2023-01-12T02:04:24.227Z,9.63
2023-01-12T02:06:57.858Z,9.00
2023-01-12T02:09:33.123Z,8.90
2023-01-12T02:12:27.357Z,8.68
2023-01-12T02:15:16.405Z,7.05
2023-01-12T02:18:14.011Z,7.78
2023-01-12T02:21:11.913Z,9.40
2023-01-12T02:24:13.518Z,8.85
2023-01-12T02:26:48.265Z,8.48
2023-01-12T02:30:04.562Z,9.20
2023-01-12T02:32:47.697Z,9.90
2023-01-12T02:35:41.234Z,9.45
2023-01-12T02:38:24.205Z,7.18
2023-01-12T02:41:19.444Z,8.88
2023-01-12T02:43:50.657Z,9.57
2023-01-12T02:46:30.870Z,8.73
2023-01-12T02:49:10.579Z,10.60
2023-01-12T02:52:03.229Z,8.40
2023-01-12T02:54:39.261Z,9.75
2023-01-12T03:00:01.999Z,9.48
2023-01-12T03:05:03.766Z,8.05
2023-01-12T03:07:53.898Z,9.50
2023-01-12T03:10:52.488Z,9.10
2023-01-12T03:13:27.148Z,9.27
2023-01-12T03:15:59.544Z,8.50
2023-01-12T03:18:40.146Z,8.57
2023-01-12T03:21:28.849Z,11.23
2023-01-12T03:24:19.390Z,9.90
2023-01-12T03:26:54.224Z,9.27
2023-01-12T03:29:42.252Z,9.05
2023-01-12T03:35:01.365Z,9.65
2023-01-12T03:37:42.036Z,8.93
2023-01-12T03:40:45.814Z,10.00
2023-01-12T03:43:29.487Z,11.30
2023-01-12T03:46:33.988Z,9.27
2023-01-12T03:49:20.355Z,12.38
2023-01-12T03:51:52.544Z,8.50
2023-01-12T03:54:26.449Z,9.55
2023-01-12T03:57:04.046Z,9.57
2023-01-12T03:59:34.972Z,9.05
2023-01-12T04:02:07.851Z,9.07
2023-01-12T04:04:41.167Z,8.32
2023-01-12T04:07:12.074Z,9.60
2023-01-12T04:09:43.132Z,8.65
2023-01-12T04:12:39.171Z,8.73
2023-01-12T04:15:10.497Z,11.75
2023-01-12T04:17:43.277Z,8.93
2023-01-12T04:20:19.642Z,8.13
2023-01-12T04:22:50.949Z,12.07
2023-01-12T04:25:43.806Z,8.27
2023-01-12T04:28:36.212Z,8.98
2023-01-12T04:31:07.196Z,7.97
2023-01-12T04:33:52.304Z,7.60
2023-01-12T04:36:24.206Z,8.50
2023-01-12T04:38:57.151Z,9.40
2023-01-12T04:41:28.164Z,8.52
2023-01-12T04:44:04.716Z,9.63
2023-01-12T04:46:35.908Z,9.05
2023-01-12T04:49:08.170Z,8.18
2023-01-12T04:51:46.915Z,9.45
2023-01-12T04:54:26.978Z,9.13
2023-01-12T04:56:59.166Z,8.27
2023-01-12T04:59:34.532Z,9.23
2023-01-12T05:02:05.603Z,9.13
2023-01-12T05:04:48.762Z,7.68
2023-01-12T05:07:20.307Z,8.45
2023-01-12T05:10:09.541Z,8.65
2023-01-12T05:13:30.893Z,11.07
2023-01-12T05:16:20.055Z,7.32
2023-01-12T05:18:51.976Z,8.30
2023-01-12T05:21:27.519Z,8.37
2023-01-12T05:24:11.600Z,9.45
2023-01-12T05:27:03.456Z,9.00
2023-01-12T05:29:34.734Z,8.65
2023-01-12T05:32:19.445Z,7.73
2023-01-12T05:34:50.445Z,7.63
2023-01-12T05:37:21.488Z,6.85
2023-01-12T05:39:52.912Z,9.75
2023-01-12T05:42:45.574Z,8.40
2023-01-12T05:51:54.762Z,7.85
2023-01-12T05:54:25.866Z,8.48
2023-01-12T05:56:57.522Z,8.45
2023-01-12T06:02:42.852Z,9.20
2023-01-12T06:05:33.874Z,7.47
2023-01-12T06:08:05.632Z,6.20
2023-01-12T06:10:38.622Z,8.32
2023-01-12T06:13:28.886Z,7.13
2023-01-12T06:16:10.624Z,7.50
2023-01-12T06:18:45.535Z,8.50
2023-01-12T06:23:52.129Z,7.50
2023-01-12T06:26:46.559Z,6.43
2023-01-12T06:29:17.646Z,6.97
2023-01-12T06:31:48.690Z,7.00
2023-01-12T06:34:19.765Z,8.27
2023-01-12T06:36:51.092Z,5.97
2023-01-12T06:39:22.176Z,7.05
2023-01-12T06:42:11.331Z,7.28
2023-01-12T06:44:42.629Z,7.82
2023-01-12T06:47:13.908Z,9.43
2023-01-12T06:50:04.532Z,6.70
2023-01-12T06:52:35.246Z,7.15
2023-01-12T06:58:18.427Z,7.82
2023-01-12T07:00:49.564Z,6.40
2023-01-12T07:03:22.537Z,8.85
2023-01-12T07:06:17.935Z,8.15
2023-01-12T07:08:54.753Z,6.60
2023-01-12T07:11:26.339Z,7.15
2023-01-12T07:13:58.308Z,7.03
2023-01-12T07:17:08.874Z,6.18
2023-01-12T07:19:41.571Z,7.55
2023-01-12T07:23:11.086Z,8.27
2023-01-12T07:25:42.111Z,7.45
2023-01-12T07:28:18.547Z,7.00
2023-01-12T07:30:50.784Z,7.45
2023-01-12T07:33:22.000Z,7.40
2023-01-12T07:35:53.436Z,7.07
2023-01-12T07:39:11.589Z,7.43
2023-01-12T07:45:00.894Z,7.45
2023-01-12T07:47:41.259Z,7.22
2023-01-12T07:50:13.208Z,5.40
2023-01-12T07:52:44.519Z,7.13
2023-01-12T07:55:19.368Z,6.47
2023-01-12T07:58:37.816Z,5.88
2023-01-12T08:01:30.685Z,6.35
2023-01-12T08:04:05.013Z,8.13
2023-01-12T08:06:39.359Z,6.03
2023-01-12T08:09:11.472Z,6.22
2023-01-12T08:11:45.680Z,5.95
2023-01-12T08:14:42.218Z,7.40
2023-01-12T08:17:25.179Z,5.75
2023-01-12T08:20:03.310Z,6.93
2023-01-12T08:22:42.803Z,6.65
2023-01-12T08:25:20.213Z,6.35
2023-01-12T08:27:56.840Z,6.97
2023-01-12T08:30:50.733Z,7.15
2023-01-12T08:33:22.715Z,5.60
2023-01-12T08:35:55.234Z,7.03
2023-01-12T08:38:26.471Z,7.88
2023-01-12T08:41:15.361Z,8.25
2023-01-12T08:44:07.373Z,8.55
2023-01-12T08:46:56.585Z,6.07
2023-01-12T08:52:21.390Z,7.18
2023-01-12T08:54:56.312Z,7.00
2023-01-12T08:57:30.553Z,6.93
2023-01-12T09:00:01.752Z,6.47
2023-01-12T09:02:33.693Z,5.70
2023-01-12T09:05:14.636Z,6.57
2023-01-12T09:07:45.618Z,7.82
2023-01-12T09:10:16.965Z,5.55
2023-01-12T09:12:48.257Z,7.10
2023-01-12T09:15:19.509Z,7.60
2023-01-12T09:17:58.345Z,6.30
2023-01-12T09:20:29.473Z,6.97
2023-01-12T09:23:21.304Z,6.75
2023-01-12T09:25:54.342Z,7.38
2023-01-12T09:28:26.281Z,6.33
2023-01-12T09:30:58.309Z,6.05
2023-01-12T09:33:40.180Z,14.30
2023-01-12T09:36:54.007Z,9.98
2023-01-12T09:39:28.765Z,13.10
2023-01-12T09:42:20.210Z,10.20
2023-01-12T09:45:12.406Z,8.60
2023-01-12T09:47:57.636Z,7.63
2023-01-12T09:53:54.640Z,10.07
2023-01-12T09:56:53.989Z,10.68
2023-01-12T10:00:04.394Z,9.60
2023-01-12T10:03:11.910Z,13.02
2023-01-12T10:05:55.303Z,10.63
2023-01-12T10:08:43.269Z,18.27
2023-01-12T10:11:50.415Z,10.77
2023-01-12T10:14:33.551Z,12.90
2023-01-12T10:17:45.992Z,13.73
2023-01-12T10:20:29.623Z,11.88
2023-01-12T10:23:12.714Z,12.20
2023-01-12T10:25:50.714Z,11.68
2023-01-12T10:28:28.477Z,12.90
2023-01-12T10:31:02.450Z,13.50
2023-01-12T10:33:35.907Z,11.38
2023-01-12T10:36:55.624Z,12.73
2023-01-12T10:43:28.682Z,10.05
2023-01-12T10:46:14.153Z,12.98
2023-01-12T10:52:22.660Z,10.73
2023-01-12T10:57:43.290Z,9.95
2023-01-12T11:00:26.058Z,12.18
2023-01-12T11:03:10.792Z,11.65
2023-01-12T11:05:55.613Z,11.75
2023-01-12T11:08:57.112Z,11.10
2023-01-12T11:14:42.285Z,10.18
2023-01-12T11:17:50.203Z,10.88
2023-01-12T11:20:25.963Z,11.20
2023-01-12T11:23:01.433Z,12.00
2023-01-12T11:25:57.712Z,12.95
2023-01-12T11:28:46.980Z,10.05
2023-01-12T11:31:27.297Z,12.80
2023-01-12T11:34:22.138Z,11.30
2023-01-12T11:40:48.303Z,10.35
2023-01-12T11:43:52.585Z,10.75
2023-01-12T11:49:50.281Z,10.25
2023-01-12T11:52:21.760Z,10.82
2023-01-12T11:54:59.911Z,10.45
2023-01-12T11:58:07.048Z,11.40
2023-01-12T12:00:51.289Z,9.55
2023-01-12T12:07:19.594Z,9.80
2023-01-12T12:13:11.493Z,11.27
2023-01-12T12:16:20.333Z,11.02
2023-01-12T12:19:25.681Z,11.55
2023-01-12T12:22:33.371Z,10.90
2023-01-12T12:25:41.690Z,11.30
2023-01-12T12:28:41.399Z,10.57
2023-01-12T12:31:25.308Z,10.85
2023-01-12T12:34:27.961Z,10.73
2023-01-12T12:37:13.629Z,10.25
2023-01-12T12:40:13.536Z,10.98
2023-01-12T12:43:23.675Z,9.48
2023-01-12T12:46:38.259Z,11.00
2023-01-12T12:49:20.740Z,9.98
2023-01-12T12:51:58.503Z,10.50
2023-01-12T12:54:31.532Z,10.50
2023-01-12T12:57:04.269Z,13.02
2023-01-12T12:59:58.197Z,16.25
2023-01-12T13:02:56.906Z,9.90
2023-01-12T13:06:14.116Z,10.55
2023-01-12T13:08:50.956Z,11.95
2023-01-12T13:11:42.690Z,10.20
2023-01-12T13:14:35.707Z,13.25
2023-01-12T13:17:31.076Z,11.50
2023-01-12T13:20:13.510Z,13.95
2023-01-12T13:22:50.382Z,13.00
2023-01-12T13:25:22.154Z,13.82
2023-01-12T13:27:59.251Z,11.27
2023-01-12T13:30:32.058Z,14.02
2023-01-12T13:33:21.277Z,12.43
2023-01-12T13:35:53.194Z,10.35
2023-01-12T13:38:40.115Z,9.93
2023-01-12T13:41:19.421Z,12.20
2023-01-12T13:43:52.561Z,12.00
2023-01-12T13:46:48.491Z,10.85
2023-01-12T13:49:36.308Z,11.45
2023-01-12T13:52:29.707Z,9.60
2023-01-12T13:55:02.517Z,11.93
2023-01-12T13:58:09.458Z,11.15
2023-01-12T14:00:41.960Z,10.10
2023-01-12T14:03:47.068Z,10.90
2023-01-12T14:09:54.320Z,13.52
2023-01-12T14:12:56.597Z,12.88
2023-01-12T14:15:58.546Z,14.70
2023-01-12T14:18:42.769Z,12.80
2023-01-12T14:21:31.507Z,9.95
2023-01-12T14:24:17.811Z,11.15
2023-01-12T14:26:52.405Z,12.50
2023-01-12T14:29:30.104Z,11.02
2023-01-12T14:32:16.554Z,12.40
2023-01-12T14:34:56.165Z,11.23
2023-01-12T14:37:44.346Z,11.57
2023-01-12T14:40:37.449Z,13.48
2023-01-12T14:43:27.061Z,10.88
2023-01-12T14:46:18.664Z,11.20
2023-01-12T14:52:02.659Z,11.88
2023-01-12T14:54:36.173Z,11.98
2023-01-12T14:57:11.170Z,12.05
2023-01-12T14:59:52.363Z,12.35
2023-01-12T15:02:41.446Z,9.70
2023-01-12T15:05:13.467Z,11.32
2023-01-12T15:08:02.924Z,12.82
2023-01-12T15:10:38.723Z,11.73
2023-01-12T15:13:39.389Z,11.80
2023-01-12T15:16:49.389Z,9.75
2023-01-12T15:20:02.227Z,11.80
2023-01-12T15:22:53.422Z,10.18
2023-01-12T15:25:40.730Z,13.30
2023-01-12T15:28:14.961Z,13.23
2023-01-12T15:30:46.308Z,10.52
2023-01-12T15:33:18.091Z,10.32
2023-01-12T15:35:56.017Z,12.80
2023-01-12T15:38:33.412Z,10.57
2023-01-12T15:41:07.581Z,10.45
2023-01-12T15:43:38.946Z,9.27
2023-01-12T15:46:21.952Z,12.70
2023-01-12T15:48:52.867Z,12.07
2023-01-12T15:51:46.925Z,11.70
2023-01-12T15:54:25.188Z,12.02
2023-01-12T15:57:21.251Z,9.15
2023-01-12T15:59:52.562Z,10.63
2023-01-12T16:02:40.079Z,9.15
2023-01-12T16:05:13.905Z,9.85
2023-01-12T16:08:24.366Z,10.57
2023-01-12T16:11:10.829Z,11.10
2023-01-12T16:13:45.229Z,11.50
2023-01-12T16:16:19.884Z,9.85
2023-01-12T16:18:52.076Z,12.30
2023-01-12T16:21:26.174Z,13.00
2023-01-12T16:24:00.438Z,10.23
2023-01-12T16:26:35.757Z,9.70
2023-01-12T16:29:07.073Z,11.45
2023-01-12T16:31:57.842Z,13.85
2023-01-12T16:34:29.155Z,10.80
2023-01-12T16:37:00.893Z,9.85
2023-01-12T16:39:34.436Z,12.32
2023-01-12T16:42:07.858Z,10.07
2023-01-12T16:44:44.270Z,9.63
2023-01-12T16:48:00.492Z,11.98
2023-01-12T16:50:35.073Z,10.43
2023-01-12T16:53:13.519Z,11.35
2023-01-12T16:55:44.416Z,11.90
2023-01-12T16:58:35.191Z,8.98
2023-01-12T17:01:29.696Z,12.13
2023-01-12T17:04:02.523Z,9.10
2023-01-12T17:06:33.904Z,12.70
2023-01-12T17:09:05.579Z,9.85
2023-01-12T17:11:39.213Z,9.73
2023-01-12T17:14:24.565Z,7.85
2023-01-12T17:17:03.304Z,12.52
2023-01-12T17:19:36.020Z,10.32
2023-01-12T17:22:09.744Z,9.23
2023-01-12T17:24:42.543Z,10.93
2023-01-12T17:27:18.498Z,10.65
2023-01-12T17:29:53.197Z,10.32
2023-01-12T17:32:29.566Z,12.05
2023-01-12T17:35:00.779Z,10.07
2023-01-12T17:37:33.962Z,11.27
2023-01-12T17:40:06.761Z,7.90
2023-01-12T17:42:55.690Z,11.63
2023-01-12T17:45:26.723Z,8.93
2023-01-12T17:47:57.676Z,8.05
2023-01-12T17:50:29.993Z,9.45
2023-01-12T17:53:01.736Z,8.70
2023-01-12T17:55:40.079Z,10.55
2023-01-12T17:58:39.761Z,10.98
2023-01-12T18:01:15.271Z,10.68
2023-01-12T18:06:31.918Z,10.02
2023-01-12T18:09:02.976Z,11.18
2023-01-12T18:11:34.846Z,12.95
2023-01-12T18:14:06.988Z,7.22
2023-01-12T18:16:38.757Z,9.45
2023-01-12T18:19:11.904Z,9.15
2023-01-12T18:21:43.090Z,8.85
2023-01-12T18:24:14.451Z,11.20
2023-01-12T18:26:45.663Z,13.15
2023-01-12T18:29:16.855Z,12.50
2023-01-12T18:31:48.764Z,9.57
2023-01-12T18:34:22.516Z,8.60
2023-01-12T18:36:54.948Z,9.50
2023-01-12T18:39:25.845Z,9.13
2023-01-12T18:42:14.776Z,9.15
2023-01-12T18:44:45.807Z,11.05
2023-01-12T18:47:35.292Z,8.75
2023-01-12T18:50:24.516Z,9.13
2023-01-12T18:53:45.181Z,8.48
2023-01-12T18:56:16.416Z,7.80
2023-01-12T18:58:47.771Z,8.27
2023-01-12T19:01:25.835Z,8.90
2023-01-12T19:03:57.091Z,9.00
2023-01-12T19:06:41.578Z,8.65
2023-01-12T19:09:34.411Z,8.52
2023-01-12T19:12:06.609Z,10.13
2023-01-12T19:14:55.611Z,10.32
2023-01-12T19:17:29.558Z,9.20
2023-01-12T19:20:22.658Z,11.43
2023-01-12T19:23:11.515Z,8.73
2023-01-12T19:26:17.688Z,9.23
2023-01-12T19:29:28.118Z,9.27
2023-01-12T19:31:59.082Z,9.45
2023-01-12T19:34:29.765Z,9.18
2023-01-12T19:37:00.597Z,11.55
2023-01-12T19:39:59.560Z,9.63
2023-01-12T19:43:11.419Z,8.55
2023-01-12T19:45:46.660Z,11.00
2023-01-12T19:48:19.261Z,9.60
2023-01-12T19:50:50.365Z,9.82
2023-01-12T19:53:30.124Z,8.85
2023-01-12T19:56:01.267Z,11.15
2023-01-12T19:58:32.221Z,9.23
2023-01-12T20:01:03.262Z,7.97
2023-01-12T20:03:34.436Z,9.25
2023-01-12T20:06:09.460Z,8.77
2023-01-12T20:08:40.537Z,9.63
2023-01-12T20:11:11.483Z,8.55
2023-01-12T20:13:42.145Z,8.23
2023-01-12T20:16:14.488Z,8.25
2023-01-12T20:18:45.435Z,7.40
2023-01-12T20:21:17.007Z,8.98
2023-01-12T20:23:47.995Z,9.77
2023-01-12T20:26:19.299Z,9.02
2023-01-12T20:28:50.180Z,9.63
2023-01-12T20:31:44.400Z,7.35
2023-01-12T20:34:16.003Z,8.35
2023-01-12T20:36:47.781Z,7.82
2023-01-12T20:39:19.148Z,9.02
2023-01-12T20:41:51.660Z,8.20
2023-01-12T20:44:22.486Z,10.27
2023-01-12T20:46:53.186Z,10.48
2023-01-12T20:49:24.260Z,8.38
2023-01-12T20:51:55.294Z,9.00
2023-01-12T20:54:26.051Z,10.35
2023-01-12T20:59:41.610Z,8.95
2023-01-12T21:02:24.296Z,8.70
2023-01-12T21:04:55.371Z,9.98
2023-01-12T21:07:26.454Z,8.85
2023-01-12T21:09:58.684Z,9.02
2023-01-12T21:12:29.642Z,7.65
2023-01-12T21:15:00.637Z,10.00
2023-01-12T21:20:19.170Z,9.40
2023-01-12T21:22:50.028Z,7.78
2023-01-12T21:25:21.453Z,11.15
2023-01-12T21:27:52.402Z,10.05
2023-01-12T21:30:23.518Z,7.80
2023-01-12T21:32:56.239Z,10.02
2023-01-12T21:35:28.008Z,8.10
2023-01-12T21:37:59.397Z,8.73
2023-01-12T21:40:30.523Z,6.80
2023-01-12T21:43:09.923Z,8.98
2023-01-12T21:45:48.600Z,10.27
2023-01-12T21:48:21.132Z,8.38
2023-01-12T21:50:52.250Z,7.25
2023-01-12T21:54:03.908Z,9.23
2023-01-12T21:56:36.288Z,9.25
2023-01-12T21:59:08.054Z,7.55
2023-01-12T22:01:38.917Z,7.70
2023-01-12T22:04:09.868Z,7.75
2023-01-12T22:06:40.883Z,8.65
2023-01-12T22:09:31.776Z,7.57
2023-01-12T22:12:02.784Z,8.05
2023-01-12T22:14:33.435Z,10.57
2023-01-12T22:17:04.855Z,7.65
2023-01-12T22:19:39.331Z,7.80
2023-01-12T22:22:10.423Z,9.25
2023-01-12T22:24:42.344Z,7.88
2023-01-12T22:27:13.306Z,8.27
2023-01-12T22:29:44.168Z,10.07
2023-01-12T22:32:14.813Z,8.95
2023-01-12T22:37:31.061Z,8.43
2023-01-12T22:40:02.957Z,8.10
2023-01-12T22:42:52.017Z,7.97
2023-01-12T22:48:07.057Z,8.70
2023-01-12T22:50:38.079Z,5.97
2023-01-12T22:53:08.973Z,7.03
2023-01-12T22:55:43.539Z,8.10
2023-01-12T22:58:14.536Z,7.88
2023-01-12T23:00:46.924Z,7.55
2023-01-12T23:03:37.646Z,8.13
2023-01-12T23:06:12.204Z,7.53
2023-01-12T23:08:44.330Z,6.18
2023-01-12T23:11:20.875Z,7.05
2023-01-12T23:13:51.836Z,7.60
2023-01-12T23:16:22.812Z,7.32
2023-01-12T23:18:53.697Z,7.68
2023-01-12T23:21:27.671Z,8.90
2023-01-12T23:26:34.030Z,8.30
2023-01-12T23:29:04.981Z,7.95
2023-01-12T23:31:55.983Z,6.70
2023-01-12T23:34:26.816Z,8.25
2023-01-12T23:36:57.456Z,7.78
2023-01-12T23:39:28.066Z,7.28
2023-01-12T23:42:27.567Z,7.93
2023-01-12T23:44:58.485Z,7.65
2023-01-12T23:47:30.172Z,8.57
2023-01-12T23:50:01.181Z,9.48
2023-01-12T23:52:32.059Z,8.20
2023-01-12T23:55:02.707Z,6.57
